createdAt,value
2016-06-16T00:00:06.646Z,97.3
2016-06-16T00:00:16.678Z,97
2016-06-16T00:00:26.646Z,97.6
2016-06-16T00:00:36.756Z,97.2
2016-06-16T00:00:46.662Z,97
2016-06-16T00:00:56.666Z,97.2
2016-06-16T00:01:06.666Z,97.4
2016-06-16T00:01:16.744Z,97.1
2016-06-16T00:01:26.697Z,97.2
2016-06-16T00:01:36.697Z,97.1
2016-06-16T00:01:46.697Z,97.2
2016-06-16T00:01:56.716Z,97.2
2016-06-16T00:02:06.716Z,97.1
2016-06-16T00:02:16.763Z,97.4
2016-06-16T00:02:26.732Z,97.2
2016-06-16T00:02:36.763Z,97.4
2016-06-16T00:02:46.732Z,97.6
2016-06-16T00:02:56.844Z,97.2
2016-06-16T00:03:06.735Z,97.3
2016-06-16T00:03:16.813Z,97.1
2016-06-16T00:03:26.766Z,97.4
2016-06-16T00:03:36.781Z,97.2
2016-06-16T00:03:46.781Z,97.2
2016-06-16T00:03:56.815Z,97.4
2016-06-16T00:04:06.783Z,96.9
2016-06-16T00:04:16.862Z,96.7
2016-06-16T00:04:26.799Z,97.2
2016-06-16T00:04:36.815Z,96.9
2016-06-16T00:04:46.815Z,96.7
2016-06-16T00:04:56.818Z,97.4
2016-06-16T00:05:06.818Z,96.9
2016-06-16T00:05:16.865Z,97.3
2016-06-16T00:05:26.833Z,97.1
2016-06-16T00:05:36.849Z,97.6
2016-06-16T00:05:46.849Z,97.5
2016-06-16T00:05:56.900Z,97.2
2016-06-16T00:06:06.869Z,96.9
2016-06-16T00:06:16.869Z,97.1
2016-06-16T00:06:26.884Z,96.8
2016-06-16T00:06:36.884Z,97.4
2016-06-16T00:06:46.884Z,97
2016-06-16T00:06:56.887Z,97.2
2016-06-16T00:07:06.903Z,97.2
2016-06-16T00:07:16.903Z,97.2
2016-06-16T00:07:26.918Z,97.1
2016-06-16T00:07:36.918Z,97.2
2016-06-16T00:07:46.918Z,96.7
2016-06-16T00:07:56.937Z,97.1
2016-06-16T00:08:06.937Z,97.4
2016-06-16T00:08:16.968Z,96.9
2016-06-16T00:08:26.984Z,97.2
2016-06-16T00:08:36.984Z,97.4
2016-06-16T00:08:46.968Z,97.2
2016-06-16T00:08:56.956Z,96.6
2016-06-16T00:09:07.049Z,97.4
2016-06-16T00:09:16.987Z,97
2016-06-16T00:09:26.987Z,97.1
2016-06-16T00:09:36.987Z,97.2
2016-06-16T00:09:47.034Z,97
2016-06-16T00:09:57.021Z,97.1
2016-06-16T00:10:07.021Z,96.9
2016-06-16T00:10:17.021Z,96.9
2016-06-16T00:10:26.896Z,97.4
2016-06-16T00:10:37.021Z,96.9
2016-06-16T00:10:47.084Z,97.2
2016-06-16T00:10:57.040Z,96.7
2016-06-16T00:11:07.712Z,97.2
2016-06-16T00:11:17.399Z,97.1
2016-06-16T00:11:27.055Z,97.2
2016-06-16T00:11:37.087Z,97.4
2016-06-16T00:11:47.087Z,97
2016-06-16T00:11:57.090Z,97.3
2016-06-16T00:12:07.090Z,97.1
2016-06-16T00:12:17.121Z,96.8
2016-06-16T00:12:27.137Z,97.2
2016-06-16T00:12:37.105Z,96.8
2016-06-16T00:12:47.121Z,96.7
2016-06-16T00:12:57.141Z,96.6
2016-06-16T00:13:07.125Z,96.7
2016-06-16T00:13:17.125Z,97.2
2016-06-16T00:13:27.141Z,97.4
2016-06-16T00:13:37.141Z,96.9
2016-06-16T00:13:47.187Z,97.2
2016-06-16T00:13:57.158Z,97.4
2016-06-16T00:14:07.158Z,97.2
2016-06-16T00:14:17.174Z,96.8
2016-06-16T00:14:27.189Z,96.8
2016-06-16T00:14:37.189Z,97.1
2016-06-16T00:14:47.189Z,96.7
2016-06-16T00:14:57.192Z,96.7
2016-06-16T00:15:07.208Z,96.7
2016-06-16T00:15:17.208Z,97.1
2016-06-16T00:15:27.224Z,96.9
2016-06-16T00:15:37.286Z,97.1
2016-06-16T00:15:47.224Z,96.9
2016-06-16T00:15:57.228Z,96.7
2016-06-16T00:16:07.243Z,96.9
2016-06-16T00:16:17.290Z,97.2
2016-06-16T00:16:27.259Z,96.7
2016-06-16T00:16:37.259Z,96.8
2016-06-16T00:16:47.275Z,96.7
2016-06-16T00:16:57.356Z,97.2
2016-06-16T00:17:07.278Z,96.7
2016-06-16T00:17:17.278Z,96.8
2016-06-16T00:17:27.293Z,96.7
2016-06-16T00:17:37.309Z,96.9
2016-06-16T00:17:47.293Z,96.9
2016-06-16T00:17:57.326Z,97.4
2016-06-16T00:18:07.326Z,97.2
2016-06-16T00:18:17.326Z,97.4
2016-06-16T00:18:27.326Z,97.3
2016-06-16T00:18:37.326Z,97.2
2016-06-16T00:18:47.342Z,97.2
2016-06-16T00:18:57.377Z,97.2
2016-06-16T00:19:07.346Z,96.6
2016-06-16T00:19:17.362Z,97.4
2016-06-16T00:19:27.362Z,97.4
2016-06-16T00:19:37.393Z,96.8
2016-06-16T00:19:47.377Z,96.6
2016-06-16T00:19:57.396Z,97.4
2016-06-16T00:20:07.380Z,97.2
2016-06-16T00:20:17.396Z,97.5
2016-06-16T00:20:27.412Z,97.1
2016-06-16T00:20:37.443Z,97.5
2016-06-16T00:20:47.412Z,97.3
2016-06-16T00:20:57.446Z,97.4
2016-06-16T00:21:07.430Z,97
2016-06-16T00:21:17.446Z,96.9
2016-06-16T00:21:27.446Z,96.9
2016-06-16T00:21:37.461Z,97
2016-06-16T00:21:47.446Z,97.2
2016-06-16T00:21:57.449Z,96.9
2016-06-16T00:22:07.449Z,96.9
2016-06-16T00:22:17.480Z,96.9
2016-06-16T00:22:27.480Z,97
2016-06-16T00:22:37.480Z,96.7
2016-06-16T00:22:47.496Z,97.2
2016-06-16T00:22:57.499Z,97.2
2016-06-16T00:23:07.530Z,97.2
2016-06-16T00:23:17.530Z,97.2
2016-06-16T00:23:27.514Z,97.1
2016-06-16T00:23:37.514Z,97.2
2016-06-16T00:23:47.530Z,97.3
2016-06-16T00:23:57.549Z,97.2
2016-06-16T00:24:07.533Z,97.4
2016-06-16T00:24:17.549Z,97.4
2016-06-16T00:24:27.549Z,97.4
2016-06-16T00:24:37.564Z,97.2
2016-06-16T00:24:47.611Z,97.3
2016-06-16T00:24:57.567Z,97.4
2016-06-16T00:25:07.583Z,97.4
2016-06-16T00:25:17.598Z,97.4
2016-06-16T00:25:27.598Z,97.3
2016-06-16T00:25:37.614Z,97.3
2016-06-16T00:25:47.739Z,97.3
2016-06-16T00:25:57.601Z,97
2016-06-16T00:26:07.633Z,97.4
2016-06-16T00:26:17.711Z,96.9
2016-06-16T00:26:27.633Z,97
2016-06-16T00:26:37.648Z,96.9
2016-06-16T00:26:47.633Z,97.4
2016-06-16T00:26:57.667Z,97.2
2016-06-16T00:27:07.651Z,97.2
2016-06-16T00:27:17.651Z,97.2
2016-06-16T00:27:27.667Z,97.1
2016-06-16T00:27:37.667Z,97.4
2016-06-16T00:27:47.714Z,97.4
2016-06-16T00:27:57.686Z,96.9
2016-06-16T00:28:07.701Z,97.2
2016-06-16T00:28:17.701Z,97.6
2016-06-16T00:28:27.701Z,97.2
2016-06-16T00:28:37.701Z,97.3
2016-06-16T00:28:47.717Z,97.2
2016-06-16T00:28:57.720Z,97
2016-06-16T00:29:07.735Z,97.4
2016-06-16T00:29:17.735Z,96.9
2016-06-16T00:29:27.735Z,97.3
2016-06-16T00:29:37.751Z,97.3
2016-06-16T00:29:47.735Z,97.8
2016-06-16T00:29:57.771Z,97.4
2016-06-16T00:30:07.771Z,97.7
2016-06-16T00:30:17.786Z,97.8
2016-06-16T00:30:27.818Z,97.5
2016-06-16T00:30:37.786Z,97.4
2016-06-16T00:30:47.818Z,97.8
2016-06-16T00:30:57.789Z,97.4
2016-06-16T00:31:07.852Z,97.7
2016-06-16T00:31:17.664Z,97.6
2016-06-16T00:31:27.821Z,97.7
2016-06-16T00:31:37.821Z,97.6
2016-06-16T00:31:47.852Z,97.9
2016-06-16T00:31:57.839Z,97.6
2016-06-16T00:32:07.855Z,97.5
2016-06-16T00:32:17.855Z,97.5
2016-06-16T00:32:27.855Z,97.7
2016-06-16T00:32:37.886Z,97.7
2016-06-16T00:32:47.870Z,97.7
2016-06-16T00:32:57.872Z,97.9
2016-06-16T00:33:07.904Z,97.4
2016-06-16T00:33:17.888Z,97.4
2016-06-16T00:33:27.888Z,97.5
2016-06-16T00:33:37.888Z,97.5
2016-06-16T00:33:47.919Z,97.8
2016-06-16T00:33:57.908Z,97.1
2016-06-16T00:34:07.923Z,96.9
2016-06-16T00:34:17.939Z,97
2016-06-16T00:34:27.923Z,97.2
2016-06-16T00:34:37.939Z,97
2016-06-16T00:34:47.939Z,97.4
2016-06-16T00:34:57.942Z,97.3
2016-06-16T00:35:07.973Z,97.4
2016-06-16T00:35:17.973Z,97.3
2016-06-16T00:35:27.973Z,98.1
2016-06-16T00:35:38.020Z,97.7
2016-06-16T00:35:47.989Z,97.4
2016-06-16T00:35:57.992Z,97.4
2016-06-16T00:36:08.007Z,97.7
2016-06-16T00:36:18.007Z,97.6
2016-06-16T00:36:28.007Z,97.8
2016-06-16T00:36:38.023Z,97.4
2016-06-16T00:36:48.023Z,97.2
2016-06-16T00:36:58.026Z,97.3
2016-06-16T00:37:08.073Z,97.3
2016-06-16T00:37:18.042Z,97.1
2016-06-16T00:37:28.057Z,97.4
2016-06-16T00:37:38.042Z,97.4
2016-06-16T00:37:48.057Z,97.2
2016-06-16T00:37:58.060Z,97.2
2016-06-16T00:38:08.107Z,97
2016-06-16T00:38:18.076Z,97
2016-06-16T00:38:28.076Z,97.2
2016-06-16T00:38:38.076Z,97.4
2016-06-16T00:38:48.092Z,97.1
2016-06-16T00:38:58.110Z,97.3
2016-06-16T00:39:08.110Z,97.2
2016-06-16T00:39:18.110Z,97.1
2016-06-16T00:39:28.126Z,97.1
2016-06-16T00:39:38.126Z,97.4
2016-06-16T00:39:48.126Z,97.4
2016-06-16T00:39:58.144Z,97.3
2016-06-16T00:40:08.144Z,97.4
2016-06-16T00:40:18.504Z,97.4
2016-06-16T00:40:28.160Z,96.9
2016-06-16T00:40:38.254Z,97.2
2016-06-16T00:40:48.019Z,96.9
2016-06-16T00:40:58.023Z,97.3
2016-06-16T00:41:08.789Z,97.2
2016-06-16T00:41:18.039Z,98
2016-06-16T00:41:28.195Z,97.5
2016-06-16T00:41:38.195Z,97.3
2016-06-16T00:41:48.211Z,97.4
2016-06-16T00:41:58.213Z,97.2
2016-06-16T00:42:08.213Z,97.3
2016-06-16T00:42:18.213Z,97.1
2016-06-16T00:42:28.229Z,96.9
2016-06-16T00:42:38.244Z,97.2
2016-06-16T00:42:48.244Z,97.1
2016-06-16T00:42:58.263Z,97.4
2016-06-16T00:43:08.263Z,97.6
2016-06-16T00:43:18.263Z,97.5
2016-06-16T00:43:28.263Z,97.4
2016-06-16T00:43:38.263Z,97.8
2016-06-16T00:43:48.278Z,97.7
2016-06-16T00:43:58.298Z,97.4
2016-06-16T00:44:08.314Z,97.3
2016-06-16T00:44:18.298Z,97.2
2016-06-16T00:44:28.298Z,97.3
2016-06-16T00:44:38.361Z,97.1
2016-06-16T00:44:48.314Z,97.3
2016-06-16T00:44:58.317Z,97.3
2016-06-16T00:45:08.332Z,97.3
2016-06-16T00:45:18.348Z,97.1
2016-06-16T00:45:28.348Z,97.3
2016-06-16T00:45:38.348Z,97.1
2016-06-16T00:45:48.348Z,97.3
2016-06-16T00:45:58.366Z,97.4
2016-06-16T00:46:08.366Z,96.9
2016-06-16T00:46:18.366Z,96.9
2016-06-16T00:46:28.381Z,97.1
2016-06-16T00:46:38.444Z,97.2
2016-06-16T00:46:48.397Z,97.5
2016-06-16T00:46:58.401Z,97.3
2016-06-16T00:47:08.416Z,97.4
2016-06-16T00:47:18.416Z,97.3
2016-06-16T00:47:28.432Z,97.9
2016-06-16T00:47:38.432Z,97
2016-06-16T00:47:48.432Z,97.3
2016-06-16T00:47:58.435Z,96.9
2016-06-16T00:48:08.482Z,96.9
2016-06-16T00:48:18.451Z,97.5
2016-06-16T00:48:28.451Z,97
2016-06-16T00:48:38.466Z,97.1
2016-06-16T00:48:48.498Z,97.1
2016-06-16T00:48:58.469Z,97.2
2016-06-16T00:49:08.485Z,98
2016-06-16T00:49:18.485Z,97.5
2016-06-16T00:49:28.516Z,97.9
2016-06-16T00:49:38.501Z,97.8
2016-06-16T00:49:48.516Z,97.5
2016-06-16T00:49:58.519Z,97.5
2016-06-16T00:50:08.535Z,97.7
2016-06-16T00:50:18.535Z,97.5
2016-06-16T00:50:28.535Z,97.5
2016-06-16T00:50:38.535Z,97.9
2016-06-16T00:50:48.566Z,97.7
2016-06-16T00:50:58.553Z,97.7
2016-06-16T00:51:08.585Z,97.6
2016-06-16T00:51:18.569Z,97.5
2016-06-16T00:51:28.616Z,97.3
2016-06-16T00:51:38.585Z,97.5
2016-06-16T00:51:48.616Z,97.1
2016-06-16T00:51:58.588Z,97.6
2016-06-16T00:52:08.619Z,97.5
2016-06-16T00:52:18.603Z,97.6
2016-06-16T00:52:28.650Z,97.3
2016-06-16T00:52:38.603Z,97.7
2016-06-16T00:52:48.635Z,97.8
2016-06-16T00:52:58.638Z,97.5
2016-06-16T00:53:08.669Z,97.6
2016-06-16T00:53:18.669Z,97.7
2016-06-16T00:53:28.669Z,97.6
2016-06-16T00:53:38.653Z,97.6
2016-06-16T00:53:48.669Z,97.6
2016-06-16T00:53:58.672Z,97.8
2016-06-16T00:54:08.672Z,97.7
2016-06-16T00:54:18.672Z,97.6
2016-06-16T00:54:28.672Z,97.7
2016-06-16T00:54:38.719Z,97.8
2016-06-16T00:54:48.687Z,97.6
2016-06-16T00:54:58.707Z,97.6
2016-06-16T00:55:08.707Z,97.5
2016-06-16T00:55:18.723Z,97.3
2016-06-16T00:55:29.363Z,97.5
2016-06-16T00:55:38.848Z,98
2016-06-16T00:55:48.738Z,97.9
2016-06-16T00:55:58.584Z,97.5
2016-06-16T00:56:09.115Z,97.6
2016-06-16T00:56:19.287Z,97.8
2016-06-16T00:56:28.834Z,98.5
2016-06-16T00:56:38.803Z,98.3
2016-06-16T00:56:48.772Z,98.3
2016-06-16T00:56:58.791Z,98.2
2016-06-16T00:57:08.776Z,98.4
2016-06-16T00:57:18.885Z,98.4
2016-06-16T00:57:28.822Z,98.4
2016-06-16T00:57:39.072Z,98.4
2016-06-16T00:57:48.807Z,98.4
2016-06-16T00:57:58.904Z,97.9
2016-06-16T00:58:08.825Z,97.6
2016-06-16T00:58:18.888Z,97.6
2016-06-16T00:58:28.841Z,97.7
2016-06-16T00:58:38.888Z,97.5
2016-06-16T00:58:48.841Z,97.5
2016-06-16T00:58:58.891Z,97.6
2016-06-16T00:59:08.860Z,97.7
2016-06-16T00:59:18.907Z,97.6
2016-06-16T00:59:28.860Z,97.4
2016-06-16T00:59:38.891Z,97.6
2016-06-16T00:59:48.875Z,98.4
2016-06-16T00:59:58.893Z,98.5
2016-06-16T01:00:08.924Z,98.6
2016-06-16T01:00:18.924Z,98.4
2016-06-16T01:00:28.909Z,98.2
2016-06-16T01:00:38.909Z,98.2
2016-06-16T01:00:48.909Z,98.4
2016-06-16T01:00:58.944Z,98.4
2016-06-16T01:01:08.928Z,98.4
2016-06-16T01:01:18.944Z,97.9
2016-06-16T01:01:28.959Z,97.4
2016-06-16T01:01:38.944Z,97.6
2016-06-16T01:01:48.944Z,97.4
2016-06-16T01:01:58.962Z,97.8
2016-06-16T01:02:08.962Z,97.8
2016-06-16T01:02:18.978Z,97.7
2016-06-16T01:02:28.994Z,98.2
2016-06-16T01:02:38.994Z,97.8
2016-06-16T01:02:48.978Z,97.5
2016-06-16T01:02:58.997Z,97.5
2016-06-16T01:03:09.106Z,97.5
2016-06-16T01:03:19.012Z,97.8
2016-06-16T01:03:29.012Z,97.5
2016-06-16T01:03:39.028Z,97.6
2016-06-16T01:03:49.075Z,97.8
2016-06-16T01:03:59.047Z,97.9
2016-06-16T01:04:09.047Z,97.6
2016-06-16T01:04:19.047Z,97.6
2016-06-16T01:04:29.172Z,97.9
2016-06-16T01:04:39.078Z,97.7
2016-06-16T01:04:49.062Z,98.3
2016-06-16T01:04:59.081Z,98.5
2016-06-16T01:05:09.159Z,98.4
2016-06-16T01:05:19.096Z,98.2
2016-06-16T01:05:29.112Z,98.4
2016-06-16T01:05:39.096Z,97.9
2016-06-16T01:05:49.112Z,98.1
2016-06-16T01:05:59.131Z,98.4
2016-06-16T01:06:09.115Z,98.2
2016-06-16T01:06:19.131Z,98.2
2016-06-16T01:06:29.131Z,98.1
2016-06-16T01:06:39.131Z,98.1
2016-06-16T01:06:49.146Z,98
2016-06-16T01:06:59.149Z,98.3
2016-06-16T01:07:09.165Z,98.4
2016-06-16T01:07:19.149Z,98.6
2016-06-16T01:07:29.165Z,98.4
2016-06-16T01:07:39.181Z,98.4
2016-06-16T01:07:49.181Z,98.5
2016-06-16T01:07:59.185Z,98.8
2016-06-16T01:08:09.200Z,98.5
2016-06-16T01:08:19.200Z,98.6
2016-06-16T01:08:29.216Z,98.9
2016-06-16T01:08:39.216Z,98.7
2016-06-16T01:08:49.216Z,98.6
2016-06-16T01:08:59.233Z,98.4
2016-06-16T01:09:09.233Z,98.1
2016-06-16T01:09:19.233Z,98
2016-06-16T01:09:29.249Z,98.5
2016-06-16T01:09:39.327Z,98.3
2016-06-16T01:09:49.171Z,98.3
2016-06-16T01:09:59.331Z,98
2016-06-16T01:10:09.128Z,98.5
2016-06-16T01:10:19.378Z,98.8
2016-06-16T01:10:29.362Z,98.2
2016-06-16T01:10:39.284Z,98.2
2016-06-16T01:10:49.347Z,98.2
2016-06-16T01:10:59.162Z,98.5
2016-06-16T01:11:09.256Z,98.4
2016-06-16T01:11:19.912Z,98.3
2016-06-16T01:11:29.740Z,98.4
2016-06-16T01:11:39.162Z,98.1
2016-06-16T01:11:49.381Z,97.9
2016-06-16T01:11:59.197Z,98.6
2016-06-16T01:12:09.353Z,98.4
2016-06-16T01:12:19.431Z,98.5
2016-06-16T01:12:29.353Z,98.5
2016-06-16T01:12:39.228Z,98.6
2016-06-16T01:12:49.212Z,98.4
2016-06-16T01:12:59.417Z,98.4
2016-06-16T01:13:09.386Z,98.4
2016-06-16T01:13:19.386Z,98.7
2016-06-16T01:13:29.292Z,98.6
2016-06-16T01:13:39.464Z,98.6
2016-06-16T01:13:49.449Z,98.5
2016-06-16T01:13:59.406Z,98.7
2016-06-16T01:14:09.437Z,99.2
2016-06-16T01:14:19.437Z,98.5
2016-06-16T01:14:29.484Z,99
2016-06-16T01:14:39.437Z,98.5
2016-06-16T01:14:49.484Z,98.7
2016-06-16T01:14:59.502Z,98.4
2016-06-16T01:15:09.518Z,98.6
2016-06-16T01:15:19.581Z,98.6
2016-06-16T01:15:29.315Z,98.8
2016-06-16T01:15:39.534Z,98.6
2016-06-16T01:15:49.362Z,98
2016-06-16T01:15:59.568Z,97.9
2016-06-16T01:16:09.427Z,98.3
2016-06-16T01:16:19.505Z,98.2
2016-06-16T01:16:29.505Z,98.5
2016-06-16T01:16:39.521Z,98.2
2016-06-16T01:16:49.521Z,98.2
2016-06-16T01:16:59.540Z,98.8
2016-06-16T01:17:09.555Z,98.3
2016-06-16T01:17:19.540Z,98
2016-06-16T01:17:29.540Z,98.5
2016-06-16T01:17:39.555Z,98.4
2016-06-16T01:17:49.555Z,98.2
2016-06-16T01:17:59.558Z,98.7
2016-06-16T01:18:09.590Z,98.6
2016-06-16T01:18:19.621Z,98.5
2016-06-16T01:18:29.574Z,98.6
2016-06-16T01:18:39.605Z,98.6
2016-06-16T01:18:49.590Z,98.8
2016-06-16T01:18:59.608Z,98.2
2016-06-16T01:19:09.608Z,98
2016-06-16T01:19:19.639Z,98.3
2016-06-16T01:19:29.624Z,98.4
2016-06-16T01:19:39.624Z,98.3
2016-06-16T01:19:49.639Z,98.5
2016-06-16T01:19:59.643Z,98
2016-06-16T01:20:09.659Z,98.2
2016-06-16T01:20:19.643Z,98.4
2016-06-16T01:20:29.675Z,98.5
2016-06-16T01:20:39.675Z,98.5
2016-06-16T01:20:49.675Z,98.2
2016-06-16T01:20:59.692Z,98.5
2016-06-16T01:21:09.677Z,97.9
2016-06-16T01:21:19.692Z,98
2016-06-16T01:21:29.692Z,98.2
2016-06-16T01:21:39.708Z,98.4
2016-06-16T01:21:49.708Z,98.3
2016-06-16T01:21:59.711Z,98
2016-06-16T01:22:09.711Z,98.1
2016-06-16T01:22:19.727Z,98.5
2016-06-16T01:22:29.727Z,98
2016-06-16T01:22:39.742Z,98.8
2016-06-16T01:22:49.742Z,98.4
2016-06-16T01:22:59.761Z,98.5
2016-06-16T01:23:09.761Z,98.4
2016-06-16T01:23:19.761Z,98.4
2016-06-16T01:23:29.761Z,98.5
2016-06-16T01:23:39.776Z,98.2
2016-06-16T01:23:49.776Z,98.2
2016-06-16T01:23:59.779Z,98.4
2016-06-16T01:24:09.795Z,98.4
2016-06-16T01:24:19.795Z,98.5
2016-06-16T01:24:29.811Z,98.4
2016-06-16T01:24:39.795Z,98.9
2016-06-16T01:24:49.826Z,98.6
2016-06-16T01:24:59.830Z,98.9
2016-06-16T01:25:09.830Z,98.4
2016-06-16T01:25:19.830Z,98.6
2016-06-16T01:25:29.893Z,98.6
2016-06-16T01:25:39.846Z,98
2016-06-16T01:25:50.174Z,98.4
2016-06-16T01:25:59.880Z,98.1
2016-06-16T01:26:09.990Z,98.2
2016-06-16T01:26:19.896Z,98.5
2016-06-16T01:26:29.927Z,98.4
2016-06-16T01:26:39.896Z,98.5
2016-06-16T01:26:49.896Z,98.3
2016-06-16T01:26:59.899Z,98.2
2016-06-16T01:27:09.914Z,98.2
2016-06-16T01:27:19.914Z,98.2
2016-06-16T01:27:29.914Z,98.2
2016-06-16T01:27:39.914Z,98.2
2016-06-16T01:27:49.946Z,98.2
2016-06-16T01:27:59.932Z,98.5
2016-06-16T01:28:09.948Z,98.4
2016-06-16T01:28:19.948Z,98.1
2016-06-16T01:28:29.963Z,98.3
2016-06-16T01:28:39.963Z,98.2
2016-06-16T01:28:49.963Z,98.3
2016-06-16T01:28:59.967Z,98.1
2016-06-16T01:29:09.983Z,98.3
2016-06-16T01:29:19.999Z,98.2
2016-06-16T01:29:29.999Z,98.3
2016-06-16T01:29:39.999Z,98.1
2016-06-16T01:29:50.014Z,98.3
2016-06-16T01:30:00.033Z,98.3
2016-06-16T01:30:10.017Z,98.3
2016-06-16T01:30:20.048Z,98.3
2016-06-16T01:30:30.033Z,98.3
2016-06-16T01:30:40.048Z,98.3
2016-06-16T01:30:50.095Z,98.3
2016-06-16T01:31:00.051Z,98.5
2016-06-16T01:31:10.051Z,98
2016-06-16T01:31:20.083Z,98.5
2016-06-16T01:31:30.083Z,98.3
2016-06-16T01:31:40.067Z,98.1
2016-06-16T01:31:50.098Z,98.4
2016-06-16T01:32:00.101Z,97.9
2016-06-16T01:32:10.148Z,98.2
2016-06-16T01:32:20.101Z,98.4
2016-06-16T01:32:30.101Z,98.3
2016-06-16T01:32:40.117Z,98.2
2016-06-16T01:32:50.148Z,98
2016-06-16T01:33:00.120Z,98.5
2016-06-16T01:33:10.136Z,98.4
2016-06-16T01:33:20.151Z,98.6
2016-06-16T01:33:30.182Z,99
2016-06-16T01:33:40.151Z,98.8
2016-06-16T01:33:50.151Z,98.8
2016-06-16T01:34:00.170Z,98.4
2016-06-16T01:34:10.232Z,98.5
2016-06-16T01:34:20.014Z,98.5
2016-06-16T01:34:30.185Z,98.2
2016-06-16T01:34:40.185Z,98.2
2016-06-16T01:34:50.201Z,98.4
2016-06-16T01:35:00.204Z,98.1
2016-06-16T01:35:10.204Z,98.1
2016-06-16T01:35:20.204Z,98.2
2016-06-16T01:35:30.220Z,98.6
2016-06-16T01:35:40.220Z,98.2
2016-06-16T01:35:50.220Z,98.3
2016-06-16T01:36:00.238Z,98.3
2016-06-16T01:36:10.238Z,98.5
2016-06-16T01:36:20.238Z,98.5
2016-06-16T01:36:30.254Z,98.8
2016-06-16T01:36:40.254Z,98.6
2016-06-16T01:36:50.270Z,98.7
2016-06-16T01:37:00.304Z,98.4
2016-06-16T01:37:10.288Z,98.4
2016-06-16T01:37:20.288Z,98.6
2016-06-16T01:37:30.304Z,98.6
2016-06-16T01:37:40.288Z,98.4
2016-06-16T01:37:50.304Z,98.4
2016-06-16T01:38:00.323Z,98.6
2016-06-16T01:38:10.323Z,98.6
2016-06-16T01:38:20.323Z,98.6
2016-06-16T01:38:30.339Z,98.6
2016-06-16T01:38:40.386Z,98.5
2016-06-16T01:38:50.339Z,98.3
2016-06-16T01:39:00.654Z,98
2016-06-16T01:39:10.372Z,97.9
2016-06-16T01:39:20.372Z,97.9
2016-06-16T01:39:30.372Z,98.8
2016-06-16T01:39:40.388Z,98.6
2016-06-16T01:39:50.388Z,98.5
2016-06-16T01:40:00.391Z,98.7
2016-06-16T01:40:10.391Z,98.5
2016-06-16T01:40:20.407Z,98.3
2016-06-16T01:40:30.407Z,98.9
2016-06-16T01:40:40.594Z,99.2
2016-06-16T01:40:50.422Z,99.1
2016-06-16T01:41:00.582Z,99.2
2016-06-16T01:41:10.301Z,98.9
2016-06-16T01:41:21.004Z,99
2016-06-16T01:41:31.114Z,99.2
2016-06-16T01:41:40.442Z,99
2016-06-16T01:41:50.457Z,99.1
2016-06-16T01:42:00.476Z,99.2
2016-06-16T01:42:10.476Z,99.2
2016-06-16T01:42:20.476Z,99.3
2016-06-16T01:42:30.476Z,98.8
2016-06-16T01:42:40.492Z,98.9
2016-06-16T01:42:50.492Z,99
2016-06-16T01:43:00.510Z,98.7
2016-06-16T01:43:10.510Z,99
2016-06-16T01:43:20.526Z,99
2016-06-16T01:43:30.510Z,98.8
2016-06-16T01:43:40.807Z,98.9
2016-06-16T01:43:50.526Z,98.8
2016-06-16T01:44:00.560Z,99.1
2016-06-16T01:44:10.545Z,98.9
2016-06-16T01:44:20.560Z,99
2016-06-16T01:44:30.545Z,99
2016-06-16T01:44:40.576Z,99.2
2016-06-16T01:44:50.560Z,99.1
2016-06-16T01:45:00.579Z,99.1
2016-06-16T01:45:10.579Z,98.9
2016-06-16T01:45:20.657Z,98.9
2016-06-16T01:45:30.657Z,98.9
2016-06-16T01:45:40.610Z,98.8
2016-06-16T01:45:50.610Z,99
2016-06-16T01:46:00.613Z,98.7
2016-06-16T01:46:10.660Z,99.1
2016-06-16T01:46:20.629Z,99
2016-06-16T01:46:30.644Z,98.8
2016-06-16T01:46:40.644Z,99
2016-06-16T01:46:50.660Z,99.1
2016-06-16T01:47:00.663Z,99
2016-06-16T01:47:10.725Z,98.9
2016-06-16T01:47:20.647Z,99
2016-06-16T01:47:30.772Z,98.9
2016-06-16T01:47:40.663Z,99
2016-06-16T01:47:50.694Z,98.8
2016-06-16T01:48:00.697Z,99
2016-06-16T01:48:10.728Z,98.7
2016-06-16T01:48:20.697Z,99
2016-06-16T01:48:30.713Z,98.9
2016-06-16T01:48:40.713Z,98.9
2016-06-16T01:48:50.713Z,98.9
2016-06-16T01:49:00.732Z,98.8
2016-06-16T01:49:10.732Z,98.8
2016-06-16T01:49:20.748Z,99.5
2016-06-16T01:49:30.764Z,99
2016-06-16T01:49:40.764Z,98.9
2016-06-16T01:49:50.764Z,98.9
2016-06-16T01:50:00.750Z,99.7
2016-06-16T01:50:10.766Z,99.7
2016-06-16T01:50:20.766Z,99.2
2016-06-16T01:50:30.813Z,99.5
2016-06-16T01:50:40.781Z,99.6
2016-06-16T01:50:50.797Z,99.4
2016-06-16T01:51:00.800Z,99.5
2016-06-16T01:51:10.816Z,99.2
2016-06-16T01:51:20.941Z,99.7
2016-06-16T01:51:30.816Z,99.6
2016-06-16T01:51:40.816Z,99.5
2016-06-16T01:51:50.831Z,99.7
2016-06-16T01:52:00.898Z,99.4
2016-06-16T01:52:10.835Z,99.8
2016-06-16T01:52:20.851Z,99.4
2016-06-16T01:52:30.851Z,99.4
2016-06-16T01:52:40.913Z,99.6
2016-06-16T01:52:50.866Z,99.4
2016-06-16T01:53:01.182Z,99.4
2016-06-16T01:53:10.885Z,99.8
2016-06-16T01:53:20.885Z,99.8
2016-06-16T01:53:30.885Z,99.6
2016-06-16T01:53:40.916Z,99.7
2016-06-16T01:53:50.901Z,99.7
2016-06-16T01:54:00.934Z,99.6
2016-06-16T01:54:10.918Z,99
2016-06-16T01:54:21.028Z,98.9
2016-06-16T01:54:30.950Z,99
2016-06-16T01:54:41.028Z,98.9
2016-06-16T01:54:50.934Z,98.8
2016-06-16T01:55:00.968Z,99
2016-06-16T01:55:10.984Z,99
2016-06-16T01:55:20.968Z,99.6
2016-06-16T01:55:30.968Z,98.8
2016-06-16T01:55:40.984Z,98.6
2016-06-16T01:55:50.968Z,98.8
2016-06-16T01:56:01.035Z,99
2016-06-16T01:56:11.035Z,98.8
2016-06-16T01:56:21.941Z,98.7
2016-06-16T01:56:31.269Z,98.6
2016-06-16T01:56:41.019Z,98.8
2016-06-16T01:56:51.019Z,98.8
2016-06-16T01:57:01.022Z,99
2016-06-16T01:57:11.053Z,99
2016-06-16T01:57:21.038Z,99.4
2016-06-16T01:57:31.069Z,98.9
2016-06-16T01:57:41.038Z,98.8
2016-06-16T01:57:51.069Z,98.9
2016-06-16T01:58:01.072Z,98.8
2016-06-16T01:58:11.072Z,98.7
2016-06-16T01:58:21.072Z,98.6
2016-06-16T01:58:31.072Z,98.6
2016-06-16T01:58:41.072Z,99
2016-06-16T01:58:51.088Z,99
2016-06-16T01:59:01.091Z,99.1
2016-06-16T01:59:11.106Z,98.9
2016-06-16T01:59:21.106Z,99.7
2016-06-16T01:59:31.122Z,99.7
2016-06-16T01:59:41.122Z,99.2
2016-06-16T01:59:51.137Z,99.6
2016-06-16T02:00:01.140Z,99.5
2016-06-16T02:00:11.172Z,99.5
2016-06-16T02:00:21.140Z,99.3
2016-06-16T02:00:31.156Z,99.2
2016-06-16T02:00:41.140Z,99.7
2016-06-16T02:00:51.172Z,99.4
2016-06-16T02:01:01.190Z,98.9
2016-06-16T02:01:11.253Z,99.3
2016-06-16T02:01:21.190Z,99.8
2016-06-16T02:01:31.190Z,99.5
2016-06-16T02:01:41.206Z,99.4
2016-06-16T02:01:51.222Z,99.8
2016-06-16T02:02:01.226Z,98.7
2016-06-16T02:02:11.226Z,99.1
2016-06-16T02:02:21.226Z,98.9
2016-06-16T02:02:31.319Z,98.8
2016-06-16T02:02:41.257Z,98.6
2016-06-16T02:02:51.226Z,98.6
2016-06-16T02:03:01.274Z,98.7
2016-06-16T02:03:11.290Z,99.1
2016-06-16T02:03:21.259Z,98.6
2016-06-16T02:03:31.274Z,98.6
2016-06-16T02:03:41.274Z,98.8
2016-06-16T02:03:51.290Z,99
2016-06-16T02:04:01.278Z,99.8
2016-06-16T02:04:11.294Z,98.9
2016-06-16T02:04:21.294Z,98.8
2016-06-16T02:04:31.372Z,99
2016-06-16T02:04:41.310Z,98.6
2016-06-16T02:04:51.310Z,99
2016-06-16T02:05:01.327Z,99.6
2016-06-16T02:05:11.359Z,98.6
2016-06-16T02:05:21.343Z,99
2016-06-16T02:05:31.343Z,99.6
2016-06-16T02:05:41.359Z,99.7
2016-06-16T02:05:51.390Z,99
2016-06-16T02:06:01.347Z,99
2016-06-16T02:06:11.363Z,99
2016-06-16T02:06:21.378Z,98.9
2016-06-16T02:06:31.394Z,98.6
2016-06-16T02:06:41.378Z,98.8
2016-06-16T02:06:51.378Z,98.8
2016-06-16T02:07:01.396Z,98.9
2016-06-16T02:07:11.411Z,98.9
2016-06-16T02:07:21.411Z,98.9
2016-06-16T02:07:31.411Z,98.6
2016-06-16T02:07:41.411Z,99.6
2016-06-16T02:07:51.427Z,99.7
2016-06-16T02:08:01.447Z,98.9
2016-06-16T02:08:11.478Z,99.2
2016-06-16T02:08:21.478Z,98.8
2016-06-16T02:08:31.447Z,99.4
2016-06-16T02:08:41.462Z,98.9
2016-06-16T02:08:51.478Z,98.7
2016-06-16T02:09:01.481Z,98.7
2016-06-16T02:09:11.481Z,98.7
2016-06-16T02:09:21.481Z,98.9
2016-06-16T02:09:31.481Z,99.4
2016-06-16T02:09:41.528Z,98.7
2016-06-16T02:09:51.497Z,98.8
2016-06-16T02:10:01.515Z,98.7
2016-06-16T02:10:11.515Z,99.6
2016-06-16T02:10:21.546Z,99
2016-06-16T02:10:31.531Z,98.5
2016-06-16T02:10:41.546Z,98.9
2016-06-16T02:10:51.546Z,99
2016-06-16T02:11:01.565Z,99.1
2016-06-16T02:11:12.003Z,98.9
2016-06-16T02:11:21.971Z,99
2016-06-16T02:11:31.565Z,98.9
2016-06-16T02:11:41.971Z,98.9
2016-06-16T02:11:51.424Z,98.7
2016-06-16T02:12:01.584Z,99.1
2016-06-16T02:12:11.599Z,99.1
2016-06-16T02:12:21.646Z,99
2016-06-16T02:12:31.599Z,99.1
2016-06-16T02:12:41.599Z,98.9
2016-06-16T02:12:51.599Z,99.1
2016-06-16T02:13:01.634Z,99
2016-06-16T02:13:11.634Z,99
2016-06-16T02:13:21.634Z,99.1
2016-06-16T02:13:31.649Z,99.1
2016-06-16T02:13:41.665Z,99
2016-06-16T02:13:51.665Z,99
2016-06-16T02:14:01.652Z,99